Time;durP1;ratioP1;P1;durP2;ratioP2;P2;SDS_P1;SDS_P2;PMS_P1;PMS_P2;Temp;Humidity;BMP_temperature;BMP_pressure;BME280_temperature;BME280_humidity;BME280_pressure;Samples;Min_cycle;Max_cycle;Signal;HPM_P1;HPM_P2
2021/11/16 00:00:06;;;;;;;57.97;27.58;;;5.40;99.90;;;;;;4993646;28;19922;-73
2021/11/16 00:02:37;;;;;;;63.90;27.45;;;5.40;99.90;;;;;;4993126;28;20051;-72
2021/11/16 00:05:09;;;;;;;60.97;27.67;;;5.40;99.90;;;;;;4960728;28;20133;-73
2021/11/16 00:07:41;;;;;;;61.92;27.67;;;5.30;99.90;;;;;;4973541;28;20125;-73
2021/11/16 00:10:09;;;;;;;58.90;27.77;;;5.40;99.90;;;;;;4991441;28;20046;-72
2021/11/16 00:12:41;;;;;;;62.58;28.30;;;5.40;99.90;;;;;;4990368;28;20038;-73
2021/11/16 00:15:13;;;;;;;62.38;29.10;;;5.40;99.90;;;;;;4991744;28;20038;-72
2021/11/16 00:17:39;;;;;;;64.65;29.20;;;5.40;99.90;;;;;;4991326;28;20112;-72
2021/11/16 00:20:13;;;;;;;58.92;29.15;;;5.40;99.90;;;;;;4991590;28;20560;-72
2021/11/16 00:22:46;;;;;;;59.05;27.13;;;5.40;99.90;;;;;;4975872;28;20057;-72
2021/11/16 00:25:31;;;;;;;60.30;28.70;;;5.40;99.90;;;;;;4991430;28;20050;-72
2021/11/16 00:27:58;;;;;;;60.85;29.10;;;5.40;99.90;;;;;;4989844;28;20065;-72
2021/11/16 00:30:29;;;;;;;61.47;28.77;;;5.40;99.90;;;;;;4989959;28;20129;-73
2021/11/16 00:33:01;;;;;;;55.67;26.52;;;5.40;99.90;;;;;;4992536;28;20129;-73
2021/11/16 00:35:37;;;;;;;60.13;28.83;;;5.30;99.90;;;;;;4992442;28;20126;-73
2021/11/16 00:38:06;;;;;;;61.15;29.17;;;5.30;99.90;;;;;;4991562;28;20069;-73
2021/11/16 00:40:33;;;;;;;61.15;28.23;;;5.40;99.90;;;;;;4991479;28;20074;-73
2021/11/16 00:43:09;;;;;;;60.80;29.42;;;5.30;99.90;;;;;;4991578;28;20125;-72
2021/11/16 00:45:43;;;;;;;63.58;29.33;;;5.30;99.90;;;;;;4991306;28;20081;-72
2021/11/16 00:48:17;;;;;;;60.03;29.15;;;5.30;99.90;;;;;;4976142;28;20413;-72
2021/11/16 00:50:54;;;;;;;66.75;29.65;;;5.30;99.90;;;;;;4991449;28;20133;-72
2021/11/16 00:53:30;;;;;;;63.70;30.13;;;5.30;99.90;;;;;;4990991;28;20046;-72
2021/11/16 00:55:57;;;;;;;61.80;29.80;;;5.30;99.90;;;;;;4991100;28;20485;-72
2021/11/16 00:58:29;;;;;;;62.47;28.38;;;5.40;99.90;;;;;;4991044;28;20132;-73
2021/11/16 01:01:02;;;;;;;57.13;28.15;;;5.30;99.90;;;;;;4992284;28;20084;-73
2021/11/16 01:03:34;;;;;;;66.10;28.97;;;5.30;99.90;;;;;;4992124;28;20132;-72
2021/11/16 01:06:06;;;;;;;63.47;28.95;;;5.30;99.90;;;;;;4975637;28;20125;-73
2021/11/16 01:08:38;;;;;;;60.78;28.33;;;5.30;99.90;;;;;;4990974;28;20066;-73
2021/11/16 01:11:05;;;;;;;66.00;28.20;;;5.30;99.90;;;;;;4990916;28;20125;-72
2021/11/16 01:13:31;;;;;;;60.65;28.80;;;5.20;99.90;;;;;;4992118;28;20070;-73
2021/11/16 01:16:04;;;;;;;64.30;28.80;;;5.20;99.90;;;;;;4992043;28;20352;-72
2021/11/16 01:18:35;;;;;;;64.93;30.63;;;5.20;99.90;;;;;;4991171;28;20069;-72
2021/11/16 01:21:07;;;;;;;69.85;31.10;;;5.10;99.90;;;;;;4990885;28;20132;-72
2021/11/16 01:23:39;;;;;;;68.60;30.00;;;5.10;99.90;;;;;;4991626;28;20731;-72
2021/11/16 01:26:11;;;;;;;66.90;29.73;;;5.20;99.90;;;;;;4979333;28;20077;-72
2021/11/16 01:28:38;;;;;;;63.58;28.80;;;5.20;99.90;;;;;;4996184;28;20116;-72
2021/11/16 01:31:05;;;;;;;60.75;27.35;;;5.10;99.90;;;;;;4994919;28;20115;-72
2021/11/16 01:33:49;;;;;;;65.32;28.42;;;5.20;99.90;;;;;;4994881;28;20133;-72
2021/11/16 01:36:21;;;;;;;62.63;28.80;;;5.20;99.90;;;;;;4994889;28;20129;-72
2021/11/16 01:38:57;;;;;;;61.85;28.98;;;5.10;99.90;;;;;;4994964;28;20113;-72
2021/11/16 01:41:25;;;;;;;64.80;29.90;;;5.10;99.90;;;;;;4995966;28;20121;-73
2021/11/16 01:44:00;;;;;;;60.20;28.02;;;5.10;99.90;;;;;;4994704;28;20124;-72
2021/11/16 01:46:32;;;;;;;70.28;28.50;;;5.10;99.90;;;;;;4994512;28;20487;-73
2021/11/16 01:49:04;;;;;;;67.10;27.58;;;5.00;99.90;;;;;;4978478;28;20153;-72
2021/11/16 01:51:38;;;;;;;62.20;27.87;;;5.00;99.90;;;;;;4994603;28;20048;-72
2021/11/16 01:54:10;;;;;;;;;;;5.00;99.90;;;;;;4995876;28;20500;-73
2021/11/16 01:56:41;;;;;;;62.33;26.10;;;5.00;99.90;;;;;;4995499;28;20367;-73
2021/11/16 01:59:18;;;;;;;64.93;27.00;;;5.00;99.90;;;;;;4993974;28;20046;-73
2021/11/16 02:01:51;;;;;;;64.40;26.60;;;5.00;99.90;;;;;;4995184;28;20141;-72
2021/11/16 02:04:32;;;;;;;66.57;27.15;;;5.00;99.90;;;;;;4993793;28;20049;-73
2021/11/16 02:07:06;;;;;;;54.38;25.17;;;5.00;99.90;;;;;;4994891;28;20125;-72
2021/11/16 02:09:38;;;;;;;56.55;26.00;;;5.00;99.90;;;;;;4993617;28;20038;-72
2021/11/16 02:12:10;;;;;;;62.33;27.35;;;5.00;99.90;;;;;;4977927;28;20444;-72
2021/11/16 02:14:37;;;;;;;58.53;25.55;;;5.00;99.90;;;;;;4994877;28;20062;-72
2021/11/16 02:17:09;;;;;;;59.42;26.85;;;5.00;99.90;;;;;;4993739;28;20044;-72
2021/11/16 02:19:43;;;;;;;61.67;27.80;;;5.00;99.90;;;;;;4993859;28;20100;-72
2021/11/16 02:22:16;;;;;;;;;;;5.00;99.90;;;;;;4994474;28;20074;-73
2021/11/16 02:24:43;;;;;;;60.70;26.92;;;5.00;99.90;;;;;;4995509;28;20016;-72
2021/11/16 02:27:14;;;;;;;67.40;27.25;;;5.00;99.90;;;;;;4993425;28;20085;-73
2021/11/16 02:29:42;;;;;;;63.50;27.48;;;5.00;99.90;;;;;;4993077;28;20465;-72
2021/11/16 02:32:13;;;;;;;62.63;27.27;;;5.00;99.90;;;;;;4977411;28;20049;-72
2021/11/16 02:34:45;;;;;;;61.63;26.00;;;5.00;99.90;;;;;;4976896;28;20137;-72
2021/11/16 02:37:12;;;;;;;61.58;26.85;;;5.00;99.90;;;;;;4993713;28;20049;-72
2021/11/16 02:39:44;;;;;;;66.32;27.10;;;5.00;99.90;;;;;;4994318;28;20447;-72
2021/11/16 02:42:11;;;;;;;61.78;26.42;;;5.00;99.90;;;;;;4993317;28;20150;-72
2021/11/16 02:44:43;;;;;;;63.58;25.85;;;4.90;99.90;;;;;;4977923;28;20074;-73
2021/11/16 02:47:10;;;;;;;56.67;26.08;;;4.90;99.90;;;;;;4977244;28;20088;-73
2021/11/16 02:49:36;;;;;;;56.90;25.67;;;4.90;99.90;;;;;;4977142;28;20509;-72
2021/11/16 02:52:11;;;;;;;64.55;27.25;;;4.90;99.90;;;;;;4978126;28;20048;-72
2021/11/16 02:54:42;;;;;;;60.80;26.73;;;4.90;99.90;;;;;;4993752;28;20035;-73
2021/11/16 02:57:11;;;;;;;62.72;27.88;;;4.90;99.90;;;;;;4992972;28;20073;-72
2021/11/16 02:59:43;;;;;;;62.03;25.60;;;4.90;99.90;;;;;;4993375;28;20092;-72
2021/11/16 03:02:15;;;;;;;62.65;27.33;;;4.90;99.90;;;;;;4993075;28;20129;-73
2021/11/16 03:04:47;;;;;;;64.45;26.70;;;4.90;99.90;;;;;;4994279;28;20593;-73
2021/11/16 03:07:34;;;;;;;65.22;30.00;;;4.90;99.90;;;;;;4993087;28;20137;-73
2021/11/16 03:10:07;;;;;;;61.38;27.38;;;4.90;99.90;;;;;;4992922;28;20042;-72
2021/11/16 03:12:34;;;;;;;64.72;25.48;;;4.80;99.90;;;;;;4994311;28;20047;-73
2021/11/16 03:15:03;;;;;;;60.45;26.67;;;4.80;99.90;;;;;;4992839;28;20051;-73
2021/11/16 03:17:35;;;;;;;57.17;24.55;;;4.90;99.90;;;;;;4992902;28;20054;-73
2021/11/16 03:20:13;;;;;;;62.47;24.52;;;4.90;99.90;;;;;;4993827;28;20129;-73
2021/11/16 03:22:53;;;;;;;62.05;24.35;;;4.90;99.90;;;;;;4992702;28;20046;-73
2021/11/16 03:25:30;;;;;;;61.45;25.52;;;4.90;99.90;;;;;;4992856;28;20145;-72
2021/11/16 03:28:07;;;;;;;60.17;24.88;;;4.90;99.90;;;;;;4977300;28;20050;-73
2021/11/16 03:30:40;;;;;;;65.78;25.30;;;4.90;99.90;;;;;;4993856;28;20137;-73
2021/11/16 03:33:07;;;;;;;53.00;23.73;;;4.90;99.90;;;;;;4993635;28;20448;-73
2021/11/16 03:35:40;;;;;;;55.40;22.52;;;4.80;99.90;;;;;;4992781;28;20137;-73
2021/11/16 03:38:08;;;;;;;57.08;24.85;;;4.80;99.90;;;;;;4992455;28;20589;-73
2021/11/16 03:40:36;;;;;;;61.88;24.23;;;4.80;99.90;;;;;;4992524;28;20085;-72
2021/11/16 03:43:06;;;;;;;56.33;24.13;;;4.80;99.90;;;;;;4992046;28;20141;-73
2021/11/16 03:45:39;;;;;;;61.55;25.58;;;4.80;99.90;;;;;;4992379;28;20125;-72
2021/11/16 03:48:12;;;;;;;67.70;25.75;;;4.80;99.90;;;;;;4992115;28;20081;-72
2021/11/16 03:50:44;;;;;;;67.10;28.00;;;4.80;99.90;;;;;;4976938;28;20137;-73
2021/11/16 03:53:16;;;;;;;61.58;26.92;;;4.80;99.90;;;;;;4993229;28;20110;-73
2021/11/16 03:55:49;;;;;;;74.10;27.98;;;4.80;99.90;;;;;;4992276;28;20129;-73
2021/11/16 03:58:20;;;;;;;70.80;26.02;;;4.80;99.90;;;;;;4992285;28;20050;-73
2021/11/16 04:00:59;;;;;;;68.95;26.25;;;4.80;99.90;;;;;;4976642;28;20077;-73
2021/11/16 04:03:28;;;;;;;72.28;27.42;;;4.80;99.90;;;;;;4993174;28;20137;-73
2021/11/16 04:06:01;;;;;;;58.30;23.23;;;4.80;99.90;;;;;;4991837;28;20129;-74
2021/11/16 04:08:34;;;;;;;60.17;24.30;;;4.80;99.90;;;;;;4992056;28;20133;-73
2021/11/16 04:11:06;;;;;;;56.72;25.00;;;4.80;99.90;;;;;;4992138;28;20134;-72
2021/11/16 04:13:38;;;;;;;59.42;25.55;;;4.80;99.90;;;;;;4991965;28;20076;-73
2021/11/16 04:16:05;;;;;;;91.25;37.70;;;4.80;99.90;;;;;;4992286;28;20062;-72
2021/11/16 04:18:32;;;;;;;128.35;53.65;;;4.80;99.90;;;;;;4995109;28;20069;-73
2021/11/16 04:21:05;;;;;;;106.32;44.45;;;4.80;99.90;;;;;;4994842;28;20062;-72
2021/11/16 04:23:32;;;;;;;63.97;26.17;;;4.80;99.90;;;;;;4994438;28;20113;-73
2021/11/16 04:26:04;;;;;;;62.50;25.48;;;4.80;99.90;;;;;;4991089;28;20104;-72
2021/11/16 04:28:36;;;;;;;55.05;23.70;;;4.70;99.90;;;;;;4992708;28;20567;-73
2021/11/16 04:31:08;;;;;;;65.47;24.67;;;4.80;99.90;;;;;;4976508;28;20150;-73
2021/11/16 04:33:40;;;;;;;61.17;24.75;;;4.70;99.90;;;;;;4992627;28;20117;-72
2021/11/16 04:36:13;;;;;;;55.22;21.52;;;4.70;99.90;;;;;;4976938;28;20133;-72
2021/11/16 04:38:46;;;;;;;45.58;19.70;;;4.60;99.90;;;;;;4976375;28;20077;-73
2021/11/16 04:41:17;;;;;;;47.55;18.77;;;4.60;99.90;;;;;;4991440;28;20097;-72
2021/11/16 04:43:44;;;;;;;37.88;17.48;;;4.50;99.90;;;;;;4992276;28;20477;-72
2021/11/16 04:46:19;;;;;;;37.17;17.23;;;4.50;99.90;;;;;;4991146;28;20145;-73
2021/11/16 04:49:12;;;;;;;42.47;17.67;;;4.40;99.90;;;;;;4991186;28;20145;-73
2021/11/16 04:52:01;;;;;;;41.13;17.60;;;4.50;99.90;;;;;;4990614;28;20042;-73
2021/11/16 05:02:33;;;;;;;32.45;13.88;;;4.40;99.90;;;;;;4990558;28;20145;-72
2021/11/16 05:02:48;;;;;;;36.30;16.90;;;4.50;99.90;;;;;;5001167;28;20140;-73
2021/11/16 05:05:17;;;;;;;34.08;14.95;;;4.40;99.90;;;;;;4993528;28;20042;-72
2021/11/16 05:07:53;;;;;;;34.85;13.88;;;4.40;99.90;;;;;;5009461;28;20556;-72
2021/11/16 05:10:20;;;;;;;30.60;13.43;;;4.30;99.90;;;;;;5009659;28;20141;-72
2021/11/16 05:12:47;;;;;;;30.20;13.65;;;4.30;99.90;;;;;;5009361;28;20152;-73
2021/11/16 05:15:18;;;;;;;30.75;13.65;;;4.20;99.90;;;;;;4989310;28;20127;-72
2021/11/16 05:17:48;;;;;;;32.13;13.38;;;4.20;99.90;;;;;;4973192;28;20045;-73
2021/11/16 05:20:16;;;;;;;24.23;11.52;;;4.20;99.90;;;;;;4984983;28;20047;-72
2021/11/16 05:22:51;;;;;;;26.15;12.50;;;4.20;99.90;;;;;;4988313;28;20046;-73
2021/11/16 05:25:19;;;;;;;27.13;12.93;;;4.10;99.90;;;;;;4972391;28;20047;-72
2021/11/16 05:27:48;;;;;;;27.92;13.90;;;4.10;99.90;;;;;;4989192;28;20146;-72
2021/11/16 05:30:16;;;;;;;32.33;12.50;;;4.10;99.90;;;;;;4989365;28;20069;-72
2021/11/16 05:32:48;;;;;;;28.40;12.88;;;4.10;99.90;;;;;;4977722;28;20105;-73
2021/11/16 05:35:14;;;;;;;23.92;12.05;;;4.10;99.90;;;;;;4985096;28;20117;-72
2021/11/16 05:37:41;;;;;;;30.95;11.80;;;4.10;99.90;;;;;;4981225;28;20540;-73
2021/11/16 05:40:09;;;;;;;28.48;12.30;;;4.10;99.90;;;;;;4963685;28;20768;-72
2021/11/16 05:42:36;;;;;;;29.70;12.73;;;4.10;99.90;;;;;;4962281;28;20063;-72
2021/11/16 05:45:09;;;;;;;29.65;12.85;;;4.00;99.90;;;;;;4970875;28;20049;-73
2021/11/16 05:47:41;;;;;;;28.52;13.23;;;4.00;99.90;;;;;;4955473;28;20621;-72
2021/11/16 05:50:14;;;;;;;30.27;12.43;;;4.00;99.90;;;;;;4974643;28;20493;-72
2021/11/16 05:52:41;;;;;;;31.98;13.50;;;4.00;99.90;;;;;;4969337;28;20473;-72
2021/11/16 05:55:14;;;;;;;28.63;12.75;;;4.00;99.90;;;;;;4972559;28;20042;-72
2021/11/16 05:57:41;;;;;;;28.55;12.07;;;4.00;99.90;;;;;;4969775;28;20046;-72
2021/11/16 06:00:09;;;;;;;31.30;13.07;;;3.90;99.90;;;;;;4979348;28;20596;-72
2021/11/16 06:02:41;;;;;;;28.83;13.00;;;4.00;99.90;;;;;;4958258;28;20081;-72
2021/11/16 06:05:13;;;;;;;28.70;11.98;;;4.00;99.90;;;;;;4970462;28;20117;-72
2021/11/16 06:07:46;;;;;;;34.05;13.50;;;4.00;99.90;;;;;;4970025;28;20580;-72
2021/11/16 06:10:13;;;;;;;28.35;12.70;;;4.00;99.90;;;;;;4972056;28;20496;-72
2021/11/16 06:12:41;;;;;;;25.70;12.15;;;3.90;99.90;;;;;;4957476;28;20137;-72
2021/11/16 06:15:08;;;;;;;25.58;10.48;;;3.90;99.90;;;;;;4985659;28;20081;-72
2021/11/16 06:17:44;;;;;;;29.77;12.68;;;3.90;99.90;;;;;;4994395;28;20553;-72
2021/11/16 06:20:21;;;;;;;23.40;11.50;;;3.90;99.90;;;;;;4997944;28;20117;-72
2021/11/16 06:22:53;;;;;;;23.17;10.95;;;3.90;99.90;;;;;;4977451;28;20133;-72
2021/11/16 06:25:20;;;;;;;23.90;10.30;;;3.90;99.90;;;;;;4987267;28;20133;-72
2021/11/16 06:27:51;;;;;;;24.45;10.60;;;3.90;99.90;;;;;;4991760;28;20512;-72
2021/11/16 06:30:23;;;;;;;24.85;11.10;;;3.90;99.90;;;;;;4996130;28;20121;-72
2021/11/16 06:32:51;;;;;;;30.00;14.55;;;3.90;99.90;;;;;;4980884;28;20066;-72
2021/11/16 06:35:23;;;;;;;29.27;14.10;;;3.90;99.90;;;;;;4973899;28;20516;-72
2021/11/16 06:37:56;;;;;;;28.38;11.50;;;3.90;99.90;;;;;;4973535;28;20373;-72
2021/11/16 06:40:29;;;;;;;26.15;11.13;;;3.90;99.90;;;;;;4993545;28;20125;-72
2021/11/16 06:43:01;;;;;;;23.02;10.27;;;3.90;99.90;;;;;;4993717;28;20146;-73
2021/11/16 06:45:28;;;;;;;29.48;12.10;;;3.90;99.90;;;;;;4993060;28;20070;-73
2021/11/16 06:47:55;;;;;;;23.70;11.80;;;3.90;99.90;;;;;;4979006;28;20058;-72
2021/11/16 06:50:21;;;;;;;24.27;10.82;;;3.90;99.90;;;;;;4992620;28;20073;-72
2021/11/16 06:52:53;;;;;;;27.77;11.77;;;4.00;99.90;;;;;;4993719;28;20460;-72
2021/11/16 06:55:30;;;;;;;23.13;10.35;;;4.10;99.90;;;;;;4992881;28;20523;-72
2021/11/16 06:58:01;;;;;;;28.92;11.80;;;4.10;99.90;;;;;;4982952;28;20136;-73
2021/11/16 07:00:32;;;;;;;22.10;9.95;;;4.10;99.90;;;;;;4996037;28;20046;-72
2021/11/16 07:03:04;;;;;;;27.25;12.70;;;4.10;99.90;;;;;;4996264;28;20042;-73
2021/11/16 07:05:45;;;;;;;28.57;12.37;;;4.10;99.90;;;;;;5013724;28;20052;-72
2021/11/16 07:08:27;;;;;;;27.38;12.65;;;4.20;99.90;;;;;;4979539;28;20060;-73
2021/11/16 07:11:12;;;;;;;30.05;12.75;;;4.20;99.90;;;;;;4995762;28;20034;-73
2021/11/16 07:14:03;;;;;;;24.23;11.18;;;4.20;99.90;;;;;;4997887;28;20030;-72
2021/11/16 07:16:53;;;;;;;23.73;11.75;;;4.20;99.90;;;;;;5003005;28;20040;-72
2021/11/16 07:19:32;;;;;;;27.77;13.07;;;4.20;99.90;;;;;;4995258;28;20034;-73
2021/11/16 07:22:04;;;;;;;33.70;15.82;;;4.20;99.90;;;;;;4977880;28;20046;-72
2021/11/16 07:24:50;;;;;;;22.23;10.52;;;4.20;99.90;;;;;;5001458;28;20049;-72
2021/11/16 07:27:32;;;;;;;24.05;10.80;;;4.20;99.90;;;;;;4991590;28;21302;-73
2021/11/16 07:30:08;;;;;;;24.23;11.20;;;4.20;99.90;;;;;;4981232;28;20042;-73
2021/11/16 07:33:14;;;;;;;22.10;10.07;;;4.10;99.90;;;;;;4991080;28;20460;-73
2021/11/16 07:35:43;;;;;;;24.20;10.75;;;4.10;99.90;;;;;;4977195;28;20037;-73
2021/11/16 07:38:17;;;;;;;24.13;11.20;;;4.10;99.90;;;;;;4991192;28;20053;-73
2021/11/16 07:40:51;;;;;;;20.50;11.35;;;4.10;99.90;;;;;;4992080;28;20049;-73
2021/11/16 07:43:21;;;;;;;22.17;10.80;;;4.10;99.90;;;;;;4978092;28;20133;-72
2021/11/16 07:45:55;;;;;;;21.45;10.90;;;4.10;99.90;;;;;;4997986;28;20564;-72
2021/11/16 07:48:24;;;;;;;22.13;10.90;;;4.10;99.90;;;;;;4969033;28;20404;-73
2021/11/16 07:51:03;;;;;;;23.98;10.68;;;4.10;99.90;;;;;;4993743;28;20145;-73
2021/11/16 07:53:34;;;;;;;25.58;12.35;;;4.10;99.90;;;;;;4993445;28;20137;-72
2021/11/16 07:56:14;;;;;;;25.95;13.27;;;4.10;99.90;;;;;;4981747;28;20030;-73
2021/11/16 07:58:50;;;;;;;25.35;11.77;;;4.10;99.90;;;;;;4975340;28;20069;-73
2021/11/16 08:02:20;;;;;;;22.88;11.15;;;4.10;99.90;;;;;;4995752;28;20050;-72
2021/11/16 08:07:46;;;;;;;20.48;10.30;;;4.20;99.90;;;;;;4993270;28;20077;-73
2021/11/16 08:10:25;;;;;;;24.33;9.23;;;4.20;99.90;;;;;;4986012;28;20051;-71
2021/11/16 08:13:14;;;;;;;24.33;10.80;;;4.30;99.90;;;;;;4986094;28;20075;-72
2021/11/16 08:15:46;;;;;;;26.08;10.85;;;4.30;99.90;;;;;;5007085;28;20802;-73
2021/11/16 08:18:18;;;;;;;19.80;8.75;;;4.20;99.90;;;;;;4992276;28;20034;-73
2021/11/16 08:21:00;;;;;;;22.85;10.57;;;4.20;99.90;;;;;;4992772;28;20138;-73
2021/11/16 08:23:27;;;;;;;22.15;10.05;;;4.20;99.90;;;;;;5002447;28;20133;-72
2021/11/16 08:26:00;;;;;;;22.63;10.18;;;4.20;99.90;;;;;;5003546;28;20136;-72
2021/11/16 08:28:32;;;;;;;18.67;9.48;;;4.20;99.90;;;;;;4990997;28;20056;-72
2021/11/16 08:31:08;;;;;;;22.92;10.68;;;4.20;99.90;;;;;;4973167;28;20129;-73
2021/11/16 08:33:41;;;;;;;18.50;9.00;;;4.30;99.90;;;;;;4990430;28;20469;-73
2021/11/16 08:36:08;;;;;;;22.30;10.45;;;4.30;99.90;;;;;;4991331;28;20158;-72
2021/11/16 08:38:40;;;;;;;21.65;9.88;;;4.30;99.90;;;;;;4994131;28;20134;-72
2021/11/16 08:41:32;;;;;;;20.60;9.57;;;4.30;99.90;;;;;;4998033;28;20107;-72
2021/11/16 08:44:14;;;;;;;18.55;8.57;;;4.30;99.90;;;;;;4975663;28;20042;-73
2021/11/16 08:46:50;;;;;;;19.42;9.10;;;4.30;99.90;;;;;;4990610;28;20046;-73
2021/11/16 08:49:29;;;;;;;21.33;10.52;;;4.30;99.90;;;;;;4974439;28;20129;-73
2021/11/16 08:52:14;;;;;;;17.75;8.35;;;4.30;99.90;;;;;;4978559;28;20124;-73
2021/11/16 08:55:03;;;;;;;22.10;9.25;;;4.30;99.90;;;;;;4976879;28;20077;-73
2021/11/16 08:57:33;;;;;;;19.42;8.82;;;4.30;99.90;;;;;;4970860;28;20093;-72
2021/11/16 09:00:27;;;;;;;16.70;8.32;;;4.30;99.90;;;;;;4985097;28;20572;-72
2021/11/16 09:03:02;;;;;;;18.17;9.00;;;4.30;99.90;;;;;;4993673;28;20046;-72
2021/11/16 09:05:43;;;;;;;18.13;8.18;;;4.40;99.90;;;;;;5002525;28;20045;-73
2021/11/16 09:08:15;;;;;;;19.98;9.10;;;4.40;99.90;;;;;;4999679;28;20519;-73
2021/11/16 09:10:44;;;;;;;17.67;8.20;;;4.40;99.90;;;;;;4974862;28;20078;-72
2021/11/16 09:13:21;;;;;;;18.23;8.40;;;4.30;99.90;;;;;;4988778;28;20038;-73
2021/11/16 09:15:56;;;;;;;21.77;8.90;;;4.30;99.90;;;;;;4983602;28;20085;-72
2021/11/16 09:18:39;;;;;;;19.92;9.02;;;4.30;99.90;;;;;;4990891;28;20129;-73
2021/11/16 09:21:22;;;;;;;19.90;7.97;;;4.30;99.90;;;;;;4990983;28;20452;-72
2021/11/16 09:24:00;;;;;;;18.48;8.63;;;4.30;99.90;;;;;;4967059;28;20137;-72
2021/11/16 09:29:12;;;;;;;13.43;6.72;;;4.40;99.90;;;;;;4999875;28;20066;-71
2021/11/16 09:31:57;;;;;;;15.32;7.15;;;4.40;99.90;;;;;;5005209;28;20118;-73
2021/11/16 09:34:33;;;;;;;15.23;7.85;;;4.40;99.90;;;;;;4990459;28;20137;-72
2021/11/16 09:37:16;;;;;;;14.48;7.35;;;4.40;99.90;;;;;;4998399;28;20109;-73
2021/11/16 09:39:53;;;;;;;14.63;7.88;;;4.50;99.90;;;;;;4976393;28;20070;-72
2021/11/16 09:42:28;;;;;;;14.05;7.10;;;4.50;99.90;;;;;;4985943;28;20080;-73
2021/11/16 09:45:04;;;;;;;16.02;7.50;;;4.50;99.90;;;;;;4991985;28;20483;-73
2021/11/16 09:47:39;;;;;;;14.38;6.63;;;4.50;99.90;;;;;;5005594;28;20473;-73
2021/11/16 09:50:21;;;;;;;11.93;6.15;;;4.60;99.90;;;;;;4993234;28;20046;-73
2021/11/16 09:52:51;;;;;;;15.93;7.13;;;4.50;99.90;;;;;;5007713;28;20088;-73
2021/11/16 09:55:19;;;;;;;18.40;8.90;;;4.60;99.90;;;;;;5012971;28;20093;-73
2021/11/16 09:57:55;;;;;;;14.00;6.78;;;4.60;99.90;;;;;;4997115;28;20133;-72
2021/11/16 10:00:37;;;;;;;15.55;7.85;;;4.60;99.90;;;;;;4996746;28;20125;-73
2021/11/16 10:03:15;;;;;;;14.07;7.22;;;4.70;99.90;;;;;;5007183;28;20463;-73
2021/11/16 10:05:58;;;;;;;13.40;6.93;;;4.70;99.90;;;;;;4998743;28;20072;-72
2021/11/16 10:08:30;;;;;;;13.25;6.93;;;4.70;99.90;;;;;;5013246;28;20548;-73
2021/11/16 10:11:02;;;;;;;13.65;7.28;;;4.70;99.90;;;;;;4998279;28;20134;-73
2021/11/16 10:13:30;;;;;;;14.45;8.07;;;4.70;99.90;;;;;;4993578;28;20081;-73
2021/11/16 10:16:00;;;;;;;11.60;7.00;;;4.70;99.90;;;;;;4995382;28;20133;-73
2021/11/16 10:18:28;;;;;;;12.50;7.78;;;4.70;99.90;;;;;;4993324;28;20148;-72
2021/11/16 10:20:56;;;;;;;17.75;7.38;;;4.70;99.90;;;;;;4972926;28;20081;-73
2021/11/16 10:23:41;;;;;;;15.23;7.25;;;4.70;99.90;;;;;;4993616;28;20493;-72
2021/11/16 10:26:14;;;;;;;13.10;7.90;;;4.70;99.90;;;;;;4987118;28;20476;-72
2021/11/16 10:28:49;;;;;;;14.05;7.28;;;4.70;99.90;;;;;;5001598;28;20133;-71
2021/11/16 10:31:31;;;;;;;18.00;8.68;;;4.70;99.90;;;;;;5008091;28;20041;-72
2021/11/16 10:33:59;;;;;;;14.23;7.55;;;4.70;99.90;;;;;;5011659;28;20095;-73
2021/11/16 10:36:31;;;;;;;15.95;7.75;;;4.70;99.90;;;;;;5000634;28;20085;-73
2021/11/16 10:39:04;;;;;;;13.20;6.32;;;4.70;99.90;;;;;;4994503;28;20133;-73
2021/11/16 10:41:33;;;;;;;15.20;7.05;;;4.60;99.90;;;;;;4992711;28;20042;-73
2021/11/16 10:44:11;;;;;;;14.40;7.60;;;4.60;99.90;;;;;;4993018;28;20042;-71
2021/11/16 10:46:45;;;;;;;14.10;8.35;;;4.60;99.90;;;;;;4993826;28;20066;-72
2021/11/16 10:49:15;;;;;;;15.68;7.72;;;4.60;99.90;;;;;;4990276;28;20125;-73
2021/11/16 10:51:48;;;;;;;13.80;7.22;;;4.60;99.90;;;;;;4993251;28;20118;-73
2021/11/16 10:54:16;;;;;;;13.05;6.63;;;4.60;99.90;;;;;;4992869;28;20041;-73
2021/11/16 10:56:43;;;;;;;15.48;7.40;;;4.50;99.90;;;;;;4991266;28;20074;-73
2021/11/16 10:59:19;;;;;;;15.77;8.13;;;4.50;99.90;;;;;;4993495;28;20125;-72
2021/11/16 11:01:53;;;;;;;16.38;7.80;;;4.50;99.90;;;;;;4992444;28;20037;-72
2021/11/16 11:04:27;;;;;;;13.75;7.75;;;4.40;99.90;;;;;;4973465;28;20053;-73
2021/11/16 11:07:13;;;;;;;13.88;8.20;;;4.40;99.90;;;;;;4990049;28;20045;-73
2021/11/16 11:09:40;;;;;;;14.25;7.68;;;4.40;99.90;;;;;;4986595;28;20125;-72
2021/11/16 11:12:25;;;;;;;14.60;7.95;;;4.30;99.90;;;;;;4980079;28;20038;-73
2021/11/16 11:14:54;;;;;;;14.57;8.10;;;4.30;99.90;;;;;;4976011;28;20133;-72
2021/11/16 11:17:33;;;;;;;14.52;7.32;;;4.40;99.90;;;;;;4991052;28;20050;-72
2021/11/16 11:20:10;;;;;;;14.30;7.03;;;4.40;99.90;;;;;;4976037;28;20047;-72
2021/11/16 11:22:41;;;;;;;16.77;7.47;;;4.40;99.90;;;;;;4992321;28;20074;-72
2021/11/16 11:28:18;;;;;;;13.18;7.03;;;4.50;99.90;;;;;;4993319;28;20050;-72
2021/11/16 11:30:45;;;;;;;11.43;6.45;;;4.50;99.90;;;;;;4992085;28;20141;-72
2021/11/16 11:33:13;;;;;;;13.30;6.45;;;4.50;99.90;;;;;;4993310;28;20066;-73
2021/11/16 11:35:40;;;;;;;11.63;6.60;;;4.50;99.90;;;;;;4994176;28;20066;-72
2021/11/16 11:38:12;;;;;;;15.57;6.55;;;4.40;99.90;;;;;;4993482;28;20118;-72
2021/11/16 11:40:44;;;;;;;13.18;6.93;;;4.40;99.90;;;;;;4994964;28;20454;-72
2021/11/16 11:43:21;;;;;;;11.73;6.38;;;4.50;99.90;;;;;;4992408;28;20141;-72
2021/11/16 11:45:48;;;;;;;13.55;6.38;;;4.50;99.90;;;;;;5003276;28;20092;-72
2021/11/16 11:48:23;;;;;;;12.98;6.03;;;4.50;99.90;;;;;;4992654;28;20052;-72
2021/11/16 11:50:58;;;;;;;13.20;7.22;;;4.50;99.90;;;;;;4989913;28;20152;-72
2021/11/16 11:53:34;;;;;;;15.32;7.80;;;4.50;99.90;;;;;;5000350;28;20776;-71
2021/11/16 11:56:10;;;;;;;12.70;7.47;;;4.50;99.90;;;;;;4986193;28;20049;-72
2021/11/16 11:58:44;;;;;;;14.30;7.68;;;4.60;99.90;;;;;;4990359;28;20042;-72
2021/11/16 12:01:17;;;;;;;13.75;6.78;;;4.50;99.90;;;;;;4991838;28;20137;-72
2021/11/16 12:03:46;;;;;;;12.95;6.90;;;4.60;99.90;;;;;;5000795;28;20509;-71
2021/11/16 12:06:18;;;;;;;13.07;7.57;;;4.60;99.90;;;;;;4992689;28;20052;-72
2021/11/16 12:08:57;;;;;;;12.63;6.65;;;4.70;99.90;;;;;;4991376;28;20038;-71
2021/11/16 12:11:28;;;;;;;13.23;7.22;;;4.70;99.90;;;;;;4987633;28;20130;-72
2021/11/16 12:14:11;;;;;;;14.18;7.82;;;4.70;99.90;;;;;;4971940;28;20138;-72
2021/11/16 12:16:52;;;;;;;13.63;6.70;;;4.70;99.90;;;;;;4971715;28;20074;-72
2021/11/16 12:19:38;;;;;;;14.40;7.97;;;4.70;99.90;;;;;;4971885;28;20047;-73
2021/11/16 12:22:31;;;;;;;78.10;34.67;;;4.70;99.90;;;;;;4973044;28;20038;-73
2021/11/16 12:25:32;;;;;;;16.75;8.02;;;4.70;99.90;;;;;;4984808;28;20046;-73
2021/11/16 12:28:24;;;;;;;14.00;6.20;;;4.70;99.90;;;;;;4988269;28;20054;-72
2021/11/16 12:30:51;;;;;;;13.13;6.63;;;4.70;99.90;;;;;;4993438;28;20043;-72
2021/11/16 12:33:37;;;;;;;16.33;7.97;;;4.70;99.90;;;;;;5010230;28;20038;-72
2021/11/16 12:36:17;;;;;;;12.95;6.70;;;4.70;99.90;;;;;;4992178;28;20149;-73
2021/11/16 12:38:47;;;;;;;13.75;7.15;;;4.80;99.90;;;;;;4987988;28;20153;-72
2021/11/16 12:41:39;;;;;;;13.45;6.97;;;4.80;99.90;;;;;;4991154;28;20089;-72
2021/11/16 12:44:12;;;;;;;15.50;7.43;;;4.80;99.90;;;;;;4988175;28;20133;-72
2021/11/16 12:47:00;;;;;;;17.88;6.97;;;4.80;99.90;;;;;;4971235;28;20471;-72
2021/11/16 12:49:43;;;;;;;14.85;7.00;;;4.80;99.90;;;;;;4961167;28;20070;-73
2021/11/16 12:52:21;;;;;;;12.93;6.25;;;4.80;99.90;;;;;;4988116;28;20050;-73
2021/11/16 12:54:52;;;;;;;11.35;7.07;;;4.80;99.90;;;;;;4989622;28;20046;-72
2021/11/16 12:57:29;;;;;;;11.90;5.70;;;4.70;99.90;;;;;;4974522;28;20568;-73
2021/11/16 13:00:06;;;;;;;11.60;6.32;;;4.70;99.90;;;;;;5002235;28;20038;-72
2021/11/16 13:02:51;;;;;;;12.48;7.07;;;4.60;99.90;;;;;;5009435;28;20046;-73
2021/11/16 13:05:38;;;;;;;12.85;6.65;;;4.60;99.90;;;;;;4990955;28;20137;-73
2021/11/16 13:08:13;;;;;;;14.85;6.88;;;4.60;99.90;;;;;;4966921;28;20133;-73
2021/11/16 13:10:47;;;;;;;11.80;6.22;;;4.60;99.90;;;;;;4989646;28;20153;-73
2021/11/16 13:13:24;;;;;;;13.68;7.35;;;4.60;99.90;;;;;;4973806;28;20050;-73
2021/11/16 13:15:57;;;;;;;12.98;8.43;;;4.60;99.90;;;;;;4990975;28;20062;-72
2021/11/16 13:18:28;;;;;;;12.50;6.85;;;4.50;99.90;;;;;;4975323;28;20588;-73
2021/11/16 13:21:07;;;;;;;12.55;6.57;;;4.50;99.90;;;;;;5000580;28;20030;-73
2021/11/16 13:23:39;;;;;;;12.10;5.93;;;4.60;99.90;;;;;;4965411;28;20288;-73
2021/11/16 13:26:29;;;;;;;10.43;6.43;;;4.60;99.90;;;;;;4979413;28;20046;-74
2021/11/16 13:29:23;;;;;;;14.32;6.88;;;4.60;99.90;;;;;;4962659;28;20042;-73